createdAt,value
2019-03-04T00:00:59.276Z,46.98
2019-03-04T00:04:07.253Z,46.76
2019-03-04T00:07:12.614Z,46.72
2019-03-04T00:08:36.258Z,46.66
2019-03-04T00:09:40.395Z,46.60
2019-03-04T00:10:45.103Z,46.46
2019-03-04T00:11:48.993Z,46.34
2019-03-04T00:12:53.068Z,46.16
2019-03-04T00:13:57.457Z,46.07
2019-03-04T00:15:01.271Z,45.96
2019-03-04T00:16:05.160Z,45.73
2019-03-04T00:17:09.527Z,45.65
2019-03-04T00:18:13.503Z,45.58
2019-03-04T00:19:17.399Z,45.57
2019-03-04T00:20:21.361Z,45.54
2019-03-04T00:21:25.177Z,45.51
2019-03-04T00:22:29.068Z,45.43
2019-03-04T00:23:33.154Z,45.44
2019-03-04T00:24:37.291Z,45.46
2019-03-04T00:25:41.510Z,45.46
2019-03-04T00:26:45.827Z,45.48
2019-03-04T00:27:49.901Z,45.48
2019-03-04T00:28:54.238Z,45.44
2019-03-04T00:29:58.641Z,45.54
2019-03-04T00:31:02.808Z,45.65
2019-03-04T00:32:06.754Z,45.75
2019-03-04T00:33:10.642Z,45.82
2019-03-04T00:34:14.976Z,45.80
2019-03-04T00:35:19.374Z,45.79
2019-03-04T00:36:23.767Z,45.78
2019-03-04T00:37:27.930Z,45.85
2019-03-04T00:38:32.259Z,45.84
2019-03-04T00:39:36.402Z,46.11
2019-03-04T00:40:40.796Z,46.31
2019-03-04T00:41:44.690Z,46.41
2019-03-04T00:42:48.828Z,46.49
2019-03-04T00:43:52.734Z,46.60
2019-03-04T00:44:57.052Z,46.69
2019-03-04T00:46:01.198Z,46.76
2019-03-04T00:47:05.658Z,46.67
2019-03-04T00:48:09.543Z,46.72
2019-03-04T00:49:13.701Z,46.68
2019-03-04T00:50:17.681Z,46.82
2019-03-04T00:51:21.807Z,47.07
2019-03-04T00:52:26.020Z,47.34
2019-03-04T00:53:49.078Z,47.59
2019-03-04T00:54:52.909Z,47.68
2019-03-04T00:56:16.473Z,47.78
2019-03-04T00:57:20.639Z,47.72
2019-03-04T00:58:43.794Z,47.80
2019-03-04T00:59:47.713Z,48.13
2019-03-04T01:00:52.405Z,48.17
2019-03-04T01:03:38.450Z,48.19
2019-03-04T01:04:42.583Z,48.03
2019-03-04T01:05:46.670Z,48.11
2019-03-04T01:07:09.885Z,48.14
2019-03-04T01:08:13.782Z,48.10
2019-03-04T01:09:37.110Z,47.89
2019-03-04T01:11:00.596Z,47.89
2019-03-04T01:12:23.618Z,48.09
2019-03-04T01:15:12.514Z,48.12
2019-03-04T01:16:16.976Z,48.12
2019-03-04T01:17:20.792Z,48.56
2019-03-04T01:18:24.766Z,48.69
2019-03-04T01:19:28.835Z,48.87
2019-03-04T01:20:32.720Z,49.10
2019-03-04T01:21:36.801Z,49.16
2019-03-04T01:22:41.048Z,49.25
2019-03-04T01:23:45.378Z,49.28
2019-03-04T01:24:49.457Z,49.44
2019-03-04T01:25:53.345Z,49.20
2019-03-04T01:26:57.315Z,49.26
2019-03-04T01:28:01.457Z,49.26
2019-03-04T01:29:05.419Z,49.35
2019-03-04T01:30:12.174Z,49.41
2019-03-04T01:31:16.315Z,49.33
2019-03-04T01:32:20.485Z,49.45
2019-03-04T01:33:24.707Z,49.53
2019-03-04T01:34:28.603Z,49.69
2019-03-04T01:35:32.434Z,49.62
2019-03-04T01:36:36.403Z,49.44
2019-03-04T01:37:40.370Z,49.15
2019-03-04T01:38:44.184Z,48.85
2019-03-04T01:39:48.087Z,48.87
2019-03-04T01:40:51.988Z,48.85
2019-03-04T01:41:56.090Z,48.97
2019-03-04T01:43:00.229Z,49.13
2019-03-04T01:44:04.127Z,49.20
2019-03-04T01:45:08.701Z,49.42
2019-03-04T01:46:12.859Z,49.68
2019-03-04T01:47:16.748Z,49.98
2019-03-04T01:48:20.569Z,50.24
2019-03-04T01:49:24.386Z,50.45
2019-03-04T01:50:28.601Z,50.70
2019-03-04T01:51:32.544Z,50.80
2019-03-04T01:52:36.644Z,50.96
2019-03-04T01:53:40.548Z,51.06
2019-03-04T01:54:44.512Z,51.12
2019-03-04T01:55:48.584Z,51.26
2019-03-04T01:56:52.729Z,51.37
2019-03-04T01:57:56.877Z,51.40
2019-03-04T01:59:01.188Z,51.52
2019-03-04T02:00:06.847Z,51.60
2019-03-04T02:01:10.756Z,51.62
2019-03-04T02:02:15.223Z,51.59
2019-03-04T02:03:19.290Z,51.63
2019-03-04T02:04:23.857Z,51.77
2019-03-04T02:05:27.920Z,52.09
2019-03-04T02:06:32.155Z,52.18
2019-03-04T02:07:36.304Z,52.28
2019-03-04T02:08:40.460Z,52.43
2019-03-04T02:09:44.335Z,52.48
2019-03-04T02:10:48.484Z,52.62
2019-03-04T02:11:52.885Z,52.55
2019-03-04T02:12:57.032Z,52.43
2019-03-04T02:14:00.929Z,52.43
2019-03-04T02:15:05.130Z,52.48
2019-03-04T02:16:09.196Z,52.53
2019-03-04T02:17:13.097Z,52.71
2019-03-04T02:18:17.063Z,52.80
2019-03-04T02:19:21.789Z,52.84
2019-03-04T02:20:25.679Z,53.00
2019-03-04T02:21:29.658Z,53.20
2019-03-04T02:22:33.756Z,53.22
2019-03-04T02:23:38.140Z,53.21
2019-03-04T02:24:42.200Z,53.22
2019-03-04T02:26:24.312Z,53.24
2019-03-04T02:27:28.141Z,53.24
2019-03-04T02:28:32.216Z,53.12
2019-03-04T02:29:36.440Z,53.21
2019-03-04T02:30:40.909Z,53.09
2019-03-04T02:31:45.061Z,53.05
2019-03-04T02:32:49.180Z,53.16
2019-03-04T02:33:53.397Z,53.27
2019-03-04T02:34:57.936Z,53.25
2019-03-04T02:36:02.335Z,53.23
2019-03-04T02:37:06.491Z,53.26
2019-03-04T02:38:10.560Z,53.37
2019-03-04T02:39:14.769Z,53.33
2019-03-04T02:40:18.745Z,53.22
2019-03-04T02:41:22.620Z,53.33
2019-03-04T02:42:26.862Z,53.38
2019-03-04T02:43:30.999Z,53.43
2019-03-04T02:44:35.228Z,53.37
2019-03-04T02:45:39.455Z,53.36
2019-03-04T02:46:43.518Z,53.38
2019-03-04T02:47:47.846Z,53.44
2019-03-04T02:48:52.320Z,53.69
2019-03-04T02:49:56.149Z,53.80
2019-03-04T02:51:00.207Z,54.01
2019-03-04T02:52:04.190Z,54.06
2019-03-04T02:53:08.414Z,54.20
2019-03-04T02:54:12.647Z,54.17
2019-03-04T02:55:16.825Z,54.25
2019-03-04T02:56:20.980Z,54.36
2019-03-04T02:57:25.111Z,54.48
2019-03-04T02:58:28.919Z,54.48
2019-03-04T02:59:32.996Z,54.54
2019-03-04T03:00:37.195Z,54.55
2019-03-04T03:01:41.510Z,54.56
2019-03-04T03:02:45.433Z,54.57
2019-03-04T03:03:49.503Z,54.34
2019-03-04T03:04:53.315Z,54.21
2019-03-04T03:05:57.149Z,54.30
2019-03-04T03:07:01.352Z,54.29
2019-03-04T03:08:06.033Z,53.87
2019-03-04T03:09:11.830Z,53.81
2019-03-04T03:10:15.994Z,54.07
2019-03-04T03:11:20.124Z,54.09
2019-03-04T03:12:23.942Z,54.16
2019-03-04T03:13:28.356Z,54.20
2019-03-04T03:14:32.423Z,54.40
2019-03-04T03:15:36.313Z,54.62
2019-03-04T03:16:40.925Z,54.74
2019-03-04T03:17:45.146Z,54.80
2019-03-04T03:18:49.481Z,54.89
2019-03-04T03:19:53.618Z,54.97
2019-03-04T03:20:57.953Z,54.81
2019-03-04T03:22:01.843Z,54.75
2019-03-04T03:23:05.918Z,54.87
2019-03-04T03:24:10.313Z,55.12
2019-03-04T03:25:14.538Z,55.37
2019-03-04T03:26:18.683Z,55.48
2019-03-04T03:27:22.570Z,55.51
2019-03-04T03:28:26.472Z,55.56
2019-03-04T03:29:30.538Z,55.67
2019-03-04T03:30:34.669Z,55.76
2019-03-04T03:31:39.135Z,55.82
2019-03-04T03:32:43.358Z,55.95
2019-03-04T03:33:47.440Z,55.95
2019-03-04T03:34:51.678Z,56.03
2019-03-04T03:35:56.072Z,56.35
2019-03-04T03:37:00.666Z,56.65
2019-03-04T03:38:04.867Z,56.98
2019-03-04T03:39:09.094Z,57.21
2019-03-04T03:40:13.107Z,57.38
2019-03-04T03:41:16.983Z,57.59
2019-03-04T03:42:21.123Z,57.72
2019-03-04T03:43:25.026Z,58.05
2019-03-04T03:44:28.989Z,58.27
2019-03-04T03:45:33.388Z,58.44
2019-03-04T03:46:37.279Z,58.63
2019-03-04T03:47:41.483Z,58.75
2019-03-04T03:48:45.464Z,58.87
2019-03-04T03:49:49.282Z,59.22
2019-03-04T03:50:53.606Z,59.40
2019-03-04T03:51:57.741Z,59.53
2019-03-04T03:53:01.893Z,59.82
2019-03-04T03:54:05.881Z,60.05
2019-03-04T03:55:10.332Z,60.22
2019-03-04T03:56:14.291Z,60.27
2019-03-04T03:57:18.357Z,60.40
2019-03-04T03:58:25.074Z,60.51
2019-03-04T03:59:27.874Z,60.60
2019-03-04T04:00:31.764Z,60.68
2019-03-04T04:01:35.911Z,60.68
2019-03-04T04:02:39.942Z,60.76
2019-03-04T04:03:44.235Z,60.84
2019-03-04T04:04:48.678Z,60.89
2019-03-04T04:05:52.498Z,60.88
2019-03-04T04:06:56.639Z,60.88
2019-03-04T04:08:01.048Z,60.83
2019-03-04T04:09:06.115Z,60.81
2019-03-04T04:10:11.353Z,60.84
2019-03-04T04:11:15.261Z,60.82
2019-03-04T04:12:19.394Z,60.77
2019-03-04T04:13:23.468Z,60.73
2019-03-04T04:14:29.404Z,60.75
2019-03-04T04:15:33.288Z,60.74
2019-03-04T04:16:37.107Z,60.77
2019-03-04T04:17:41.067Z,60.77
2019-03-04T04:18:45.126Z,60.77
2019-03-04T04:19:49.104Z,60.81
2019-03-04T04:20:53.071Z,60.82
2019-03-04T04:21:56.939Z,60.82
2019-03-04T04:23:00.755Z,60.83
2019-03-04T04:24:04.651Z,60.88
2019-03-04T04:25:09.009Z,60.89
2019-03-04T04:26:22.427Z,60.95
2019-03-04T04:27:27.055Z,60.95
2019-03-04T04:28:31.549Z,60.94
2019-03-04T04:29:37.865Z,61.08
2019-03-04T04:30:41.670Z,61.14
2019-03-04T04:31:45.738Z,61.16
2019-03-04T04:32:49.642Z,61.20
2019-03-04T04:33:53.702Z,61.23
2019-03-04T04:34:57.531Z,61.28
2019-03-04T04:36:01.600Z,61.17
2019-03-04T04:37:05.565Z,61.15
2019-03-04T04:38:09.700Z,61.20
2019-03-04T04:39:13.584Z,61.18
2019-03-04T04:40:17.741Z,61.19
2019-03-04T04:41:21.555Z,61.16
2019-03-04T04:42:25.521Z,61.10
2019-03-04T04:43:29.590Z,61.03
2019-03-04T04:44:33.973Z,61.01
2019-03-04T04:45:38.041Z,60.93
2019-03-04T04:46:54.994Z,60.95
2019-03-04T04:47:59.656Z,60.95
2019-03-04T04:49:04.025Z,60.86
2019-03-04T04:50:09.691Z,60.91
2019-03-04T04:51:13.748Z,60.94
2019-03-04T04:52:18.146Z,60.93
2019-03-04T04:53:21.968Z,60.92
2019-03-04T04:54:26.357Z,60.93
2019-03-04T04:55:30.514Z,61.04
2019-03-04T04:56:34.830Z,61.12
2019-03-04T04:57:38.719Z,61.10
2019-03-04T04:58:42.536Z,61.10
2019-03-04T04:59:46.356Z,61.11
2019-03-04T05:00:50.261Z,61.10
2019-03-04T05:01:54.220Z,61.06
2019-03-04T05:02:58.190Z,61.05
2019-03-04T05:04:02.625Z,61.02
2019-03-04T05:05:06.623Z,61.01
2019-03-04T05:06:13.022Z,60.99
2019-03-04T05:07:16.393Z,60.95
2019-03-04T05:08:20.843Z,60.89
2019-03-04T05:09:24.977Z,60.94
2019-03-04T05:10:29.137Z,61.03
2019-03-04T05:11:33.530Z,61.25
2019-03-04T05:12:37.668Z,61.41
2019-03-04T05:13:41.494Z,61.52
2019-03-04T05:14:45.403Z,61.63
2019-03-04T05:15:49.310Z,61.69
2019-03-04T05:16:53.267Z,61.67
2019-03-04T05:17:57.659Z,61.68
2019-03-04T05:19:01.473Z,61.74
2019-03-04T05:20:07.522Z,61.68
2019-03-04T05:21:11.601Z,61.64
2019-03-04T05:22:15.929Z,61.66
2019-03-04T05:23:19.811Z,61.69
2019-03-04T05:24:23.953Z,61.64
2019-03-04T05:25:27.916Z,61.56
2019-03-04T05:26:31.998Z,61.60
2019-03-04T05:27:36.071Z,61.59
2019-03-04T05:28:40.457Z,61.56
2019-03-04T05:29:46.021Z,61.54
2019-03-04T05:30:50.182Z,61.56
2019-03-04T05:31:54.442Z,61.68
2019-03-04T05:32:58.909Z,61.73
2019-03-04T05:34:03.229Z,61.80
2019-03-04T05:35:07.699Z,61.84
2019-03-04T05:36:11.839Z,61.87
2019-03-04T05:37:15.912Z,61.87
2019-03-04T05:38:19.731Z,61.87
2019-03-04T05:39:23.549Z,61.89
2019-03-04T05:40:27.447Z,61.84
2019-03-04T05:41:31.538Z,61.85
2019-03-04T05:42:35.669Z,61.84
2019-03-04T05:43:39.827Z,61.81
2019-03-04T05:44:43.650Z,61.83
2019-03-04T05:45:47.470Z,62.05
2019-03-04T05:46:51.548Z,62.09
2019-03-04T05:47:55.959Z,62.36
2019-03-04T05:48:59.777Z,62.61
2019-03-04T05:50:03.986Z,62.75
2019-03-04T05:51:08.053Z,62.71
2019-03-04T05:52:12.389Z,62.78
2019-03-04T05:53:16.631Z,62.84
2019-03-04T05:54:20.523Z,62.75
2019-03-04T05:55:24.663Z,62.82
2019-03-04T05:56:29.048Z,62.83
2019-03-04T05:57:33.386Z,62.63
2019-03-04T05:58:37.191Z,62.49
2019-03-04T05:59:41.086Z,62.33
2019-03-04T06:00:45.325Z,62.37
2019-03-04T06:02:09.360Z,62.59
2019-03-04T06:03:13.583Z,62.93
2019-03-04T06:04:17.477Z,63.06
2019-03-04T06:05:21.440Z,63.17
2019-03-04T06:06:43.349Z,63.25
2019-03-04T06:07:59.884Z,63.11
2019-03-04T06:09:05.232Z,62.20
2019-03-04T06:10:11.348Z,62.50
2019-03-04T06:11:15.410Z,62.59
2019-03-04T06:12:19.659Z,62.70
2019-03-04T06:13:23.716Z,62.77
2019-03-04T06:14:27.935Z,62.91
2019-03-04T06:15:32.142Z,63.02
2019-03-04T06:16:35.956Z,63.00
2019-03-04T06:17:40.205Z,62.77
2019-03-04T06:18:44.593Z,62.79
2019-03-04T06:19:48.411Z,62.83
2019-03-04T06:20:52.728Z,62.79
2019-03-04T06:21:56.874Z,62.70
2019-03-04T06:23:00.958Z,62.58
2019-03-04T06:24:05.011Z,62.60
2019-03-04T06:25:11.667Z,62.61
2019-03-04T06:26:15.497Z,62.64
2019-03-04T06:27:19.568Z,62.60
2019-03-04T06:28:23.974Z,62.57
2019-03-04T06:29:28.316Z,62.51
2019-03-04T06:30:32.300Z,62.51
2019-03-04T06:31:36.115Z,62.40
2019-03-04T06:32:40.364Z,62.30
2019-03-04T06:33:44.517Z,62.22
2019-03-04T06:34:48.656Z,62.23
2019-03-04T06:35:52.467Z,62.30
2019-03-04T06:36:56.289Z,62.26
2019-03-04T06:38:00.267Z,62.26
2019-03-04T06:39:05.973Z,62.27
2019-03-04T06:40:11.680Z,62.21
2019-03-04T06:41:16.244Z,62.07
2019-03-04T06:42:20.065Z,61.89
2019-03-04T06:43:23.899Z,61.75
2019-03-04T06:44:27.973Z,61.65
2019-03-04T06:45:32.117Z,61.70
2019-03-04T06:46:36.181Z,61.48
2019-03-04T06:47:40.511Z,61.50
2019-03-04T06:48:44.678Z,61.43
2019-03-04T06:49:48.768Z,61.53
2019-03-04T06:50:54.227Z,61.65
2019-03-04T06:51:58.340Z,61.68
2019-03-04T06:53:02.782Z,61.70
2019-03-04T06:54:43.169Z,61.66
2019-03-04T06:56:10.707Z,61.67
2019-03-04T06:57:30.898Z,61.47
2019-03-04T06:58:35.034Z,61.48
2019-03-04T07:00:02.533Z,61.41
2019-03-04T07:01:13.877Z,61.43
2019-03-04T07:02:18.348Z,61.42
2019-03-04T07:03:31.276Z,61.44
2019-03-04T07:05:00.104Z,61.44
2019-03-04T07:06:04.377Z,61.33
2019-03-04T07:07:08.264Z,61.16
2019-03-04T07:08:48.961Z,61.13
2019-03-04T07:09:53.050Z,61.06
2019-03-04T07:10:57.437Z,60.97
2019-03-04T07:12:01.510Z,61.14
2019-03-04T07:13:05.405Z,61.16
2019-03-04T07:14:09.635Z,61.12
2019-03-04T07:15:13.591Z,61.16
2019-03-04T07:16:17.913Z,61.16
2019-03-04T07:17:21.869Z,60.94
2019-03-04T07:18:26.009Z,60.75
2019-03-04T07:19:35.159Z,60.69
2019-03-04T07:20:38.969Z,60.55
2019-03-04T07:21:42.787Z,60.57
2019-03-04T07:22:48.438Z,60.59
2019-03-04T07:23:52.608Z,60.58
2019-03-04T07:24:56.690Z,60.53
2019-03-04T07:26:00.836Z,60.66
2019-03-04T07:27:05.058Z,60.57
2019-03-04T07:28:08.951Z,60.52
2019-03-04T07:29:15.081Z,60.43
2019-03-04T07:30:19.117Z,60.27
2019-03-04T07:31:23.245Z,59.95
2019-03-04T07:32:27.376Z,59.67
2019-03-04T07:33:31.569Z,59.25
2019-03-04T07:34:35.872Z,59.27
2019-03-04T07:35:39.761Z,59.10
2019-03-04T07:36:43.655Z,59.11
2019-03-04T07:37:47.550Z,59.17
2019-03-04T07:38:56.700Z,59.11
2019-03-04T07:40:00.535Z,58.56
2019-03-04T07:41:04.997Z,58.19
2019-03-04T07:42:08.962Z,58.46
2019-03-04T07:43:13.099Z,58.79
2019-03-04T07:44:17.067Z,58.95
2019-03-04T07:45:21.229Z,59.10
2019-03-04T07:46:25.657Z,58.69
2019-03-04T07:47:29.721Z,57.25
2019-03-04T07:48:34.187Z,55.83
2019-03-04T07:49:38.330Z,55.21
2019-03-04T07:50:42.292Z,54.07
2019-03-04T07:51:46.510Z,52.44
2019-03-04T07:52:57.705Z,51.12
2019-03-04T07:54:01.676Z,50.88
2019-03-04T07:55:05.895Z,49.81
2019-03-04T07:56:10.398Z,48.78
2019-03-04T07:57:14.711Z,47.68
2019-03-04T07:58:18.734Z,46.89
2019-03-04T07:59:22.868Z,46.98
2019-03-04T08:00:26.767Z,47.20
2019-03-04T08:01:31.112Z,46.70
2019-03-04T08:02:35.018Z,46.37
2019-03-04T08:03:39.238Z,46.15
2019-03-04T08:04:43.644Z,45.48
2019-03-04T08:05:47.530Z,44.77
2019-03-04T08:06:53.194Z,44.82
2019-03-04T08:07:57.276Z,44.31
2019-03-04T08:09:43.053Z,43.17
2019-03-04T08:11:10.518Z,42.30
2019-03-04T08:13:00.104Z,42.92
2019-03-04T08:14:04.431Z,42.66
2019-03-04T08:15:10.379Z,42.03
2019-03-04T08:16:14.841Z,41.95
2019-03-04T08:17:19.058Z,42.01
2019-03-04T08:18:22.950Z,41.77
2019-03-04T08:19:26.844Z,40.87
2019-03-04T08:20:31.627Z,40.26
2019-03-04T08:21:35.525Z,39.37
2019-03-04T08:22:39.417Z,39.41
2019-03-04T08:23:43.561Z,39.89
2019-03-04T08:24:47.459Z,39.90
2019-03-04T08:25:51.428Z,39.80
2019-03-04T08:26:55.560Z,39.60
2019-03-04T08:27:59.459Z,39.39
2019-03-04T08:29:03.427Z,39.10
2019-03-04T08:30:09.774Z,38.97
2019-03-04T08:31:13.890Z,38.39
2019-03-04T08:32:17.786Z,37.96
2019-03-04T08:33:21.940Z,38.07
2019-03-04T08:34:30.952Z,37.89
2019-03-04T08:35:31.546Z,38.10
2019-03-04T08:36:35.696Z,38.13
2019-03-04T08:37:40.012Z,37.93
2019-03-04T08:38:43.838Z,37.32
2019-03-04T08:39:48.057Z,37.30
2019-03-04T08:40:52.119Z,37.07
2019-03-04T08:41:56.545Z,37.02
2019-03-04T08:43:00.784Z,37.13
2019-03-04T08:44:04.995Z,37.11
2019-03-04T08:45:09.774Z,36.49
2019-03-04T08:46:13.999Z,36.48
2019-03-04T08:47:17.825Z,36.58
2019-03-04T08:48:22.045Z,36.81
2019-03-04T08:49:26.200Z,36.72
2019-03-04T08:50:30.169Z,36.35
2019-03-04T08:51:34.657Z,36.26
2019-03-04T08:52:38.968Z,36.00
2019-03-04T08:53:43.698Z,35.51
2019-03-04T08:54:47.765Z,35.67
2019-03-04T08:55:53.124Z,35.63
2019-03-04T08:57:03.844Z,35.52
2019-03-04T08:58:03.133Z,35.53
2019-03-04T08:59:06.955Z,35.27
2019-03-04T09:00:19.315Z,35.13
2019-03-04T09:01:23.815Z,35.25
2019-03-04T09:02:27.879Z,35.27
2019-03-04T09:03:31.703Z,35.29
2019-03-04T09:04:35.853Z,35.10
2019-03-04T09:05:39.929Z,35.16
2019-03-04T09:06:43.831Z,35.23
2019-03-04T09:07:47.903Z,35.01
2019-03-04T09:08:51.800Z,35.16
2019-03-04T09:09:55.783Z,35.16
2019-03-04T09:10:59.750Z,34.89
2019-03-04T09:12:03.985Z,34.94
2019-03-04T09:13:10.572Z,35.27
2019-03-04T09:14:14.316Z,34.93
2019-03-04T09:15:18.386Z,35.09
2019-03-04T09:16:22.851Z,35.31
2019-03-04T09:17:27.028Z,35.53
2019-03-04T09:18:32.046Z,35.45
2019-03-04T09:19:36.006Z,35.08
2019-03-04T09:20:40.464Z,35.25
2019-03-04T09:21:44.738Z,35.21
2019-03-04T09:22:48.761Z,34.88
2019-03-04T09:23:52.927Z,35.02
2019-03-04T09:24:56.995Z,35.24
2019-03-04T09:26:11.211Z,35.19
2019-03-04T09:27:15.758Z,35.09
2019-03-04T09:28:19.725Z,35.36
2019-03-04T09:29:23.912Z,35.01
2019-03-04T09:30:27.906Z,35.09
2019-03-04T09:31:32.035Z,35.26
2019-03-04T09:32:36.116Z,35.10
2019-03-04T09:33:40.010Z,35.08
2019-03-04T09:34:44.328Z,35.14
2019-03-04T09:35:48.359Z,35.12
2019-03-04T09:36:52.439Z,35.36
2019-03-04T09:37:56.616Z,35.53
2019-03-04T09:39:00.969Z,35.58
2019-03-04T09:40:05.720Z,35.48
2019-03-04T09:41:09.614Z,35.83
2019-03-04T09:42:21.585Z,36.22
2019-03-04T09:43:25.833Z,36.83
2019-03-04T09:44:29.721Z,37.53
2019-03-04T09:45:38.884Z,38.32
2019-03-04T09:46:40.297Z,39.11
2019-03-04T09:47:45.232Z,39.76
2019-03-04T09:48:49.301Z,40.58
2019-03-04T09:49:53.520Z,41.16
2019-03-04T09:50:57.738Z,41.86
2019-03-04T09:52:01.877Z,42.08
2019-03-04T09:53:06.370Z,42.14
2019-03-04T09:54:10.523Z,42.27
2019-03-04T09:55:15.351Z,42.39
2019-03-04T09:56:19.885Z,42.41
2019-03-04T09:57:24.541Z,42.66
2019-03-04T09:58:28.616Z,42.78
2019-03-04T09:59:32.877Z,42.93
2019-03-04T10:00:39.565Z,42.75
2019-03-04T10:01:49.161Z,42.52
2019-03-04T10:02:53.964Z,42.74
2019-03-04T10:04:56.875Z,42.94
2019-03-04T10:06:34.502Z,43.02
2019-03-04T10:08:10.234Z,43.38
2019-03-04T10:09:56.647Z,43.60
2019-03-04T10:11:37.508Z,43.74
2019-03-04T10:13:13.209Z,43.41
2019-03-04T10:14:56.748Z,43.17
2019-03-04T10:16:43.390Z,42.44
2019-03-04T10:18:40.157Z,41.77
2019-03-04T10:20:02.875Z,41.02
2019-03-04T10:21:49.973Z,40.66
2019-03-04T10:23:40.442Z,40.57
2019-03-04T10:25:21.418Z,40.01
2019-03-04T10:27:17.230Z,39.73
2019-03-04T10:28:56.787Z,39.46
2019-03-04T10:30:44.356Z,39.48
2019-03-04T10:32:10.153Z,39.18
2019-03-04T10:33:54.340Z,38.49
2019-03-04T10:35:54.671Z,38.44
2019-03-04T10:37:12.968Z,37.49
2019-03-04T10:38:51.420Z,37.60
2019-03-04T10:40:58.152Z,37.80
2019-03-04T10:42:43.720Z,37.59
2019-03-04T10:44:27.635Z,37.67
2019-03-04T10:45:54.436Z,37.54
2019-03-04T10:46:59.608Z,37.18
2019-03-04T10:48:03.744Z,37.46
2019-03-04T10:49:07.726Z,37.25
2019-03-04T10:50:11.863Z,37.24
2019-03-04T10:51:15.814Z,36.95
2019-03-04T10:52:19.977Z,36.90
2019-03-04T10:53:24.210Z,36.88
2019-03-04T10:54:28.522Z,36.75
2019-03-04T10:55:41.502Z,36.90
2019-03-04T10:56:40.608Z,36.96
2019-03-04T10:57:44.091Z,37.46
2019-03-04T10:58:48.227Z,38.72
2019-03-04T10:59:52.620Z,39.88
2019-03-04T11:00:56.872Z,40.26
2019-03-04T11:02:01.341Z,40.57
2019-03-04T11:03:05.344Z,40.54
2019-03-04T11:04:09.597Z,40.67
2019-03-04T11:05:13.686Z,40.92
2019-03-04T11:06:17.676Z,41.13
2019-03-04T11:07:21.841Z,41.12
2019-03-04T11:08:25.903Z,41.14
2019-03-04T11:09:30.465Z,41.16
2019-03-04T11:10:34.922Z,41.07
2019-03-04T11:11:38.818Z,41.08
2019-03-04T11:12:43.321Z,41.17
2019-03-04T11:13:47.786Z,41.42
2019-03-04T11:14:51.874Z,41.38
2019-03-04T11:16:00.547Z,41.62
2019-03-04T11:17:04.685Z,41.59
2019-03-04T11:18:08.658Z,41.79
2019-03-04T11:19:12.633Z,41.99
2019-03-04T11:20:16.872Z,41.96
2019-03-04T11:21:21.019Z,42.00
2019-03-04T11:22:25.308Z,41.60
2019-03-04T11:23:30.362Z,41.43
2019-03-04T11:24:34.185Z,41.17
2019-03-04T11:25:38.255Z,41.36
2019-03-04T11:26:42.411Z,41.38
2019-03-04T11:27:46.371Z,41.31
2019-03-04T11:28:50.891Z,41.40
2019-03-04T11:29:54.932Z,41.60
2019-03-04T11:30:59.181Z,41.66
2019-03-04T11:32:03.140Z,41.71
2019-03-04T11:33:07.116Z,41.61
2019-03-04T11:34:11.502Z,41.57
2019-03-04T11:35:15.798Z,41.67
2019-03-04T11:36:20.003Z,42.04
2019-03-04T11:37:23.892Z,42.25
2019-03-04T11:38:38.787Z,42.32
2019-03-04T11:40:10.437Z,42.35
2019-03-04T11:41:17.208Z,42.88
2019-03-04T11:42:21.843Z,43.05
2019-03-04T11:43:25.736Z,42.70
2019-03-04T11:44:30.053Z,43.06
2019-03-04T11:45:34.383Z,43.46
2019-03-04T11:46:38.297Z,42.98
2019-03-04T11:47:42.520Z,43.07
2019-03-04T11:48:46.414Z,43.21
2019-03-04T11:49:50.621Z,43.00
2019-03-04T11:50:54.765Z,42.57
2019-03-04T11:51:58.972Z,42.50
2019-03-04T11:53:02.946Z,42.32
2019-03-04T11:54:06.848Z,42.28
2019-03-04T11:55:10.948Z,42.43
2019-03-04T11:56:14.924Z,42.08
2019-03-04T11:57:18.890Z,42.03
2019-03-04T11:58:22.785Z,42.19
2019-03-04T11:59:26.947Z,41.85
2019-03-04T12:00:38.285Z,41.56
2019-03-04T12:01:45.393Z,41.66
2019-03-04T12:02:49.537Z,41.31
2019-03-04T12:03:53.430Z,41.01
2019-03-04T12:04:57.569Z,40.80
2019-03-04T12:06:01.478Z,40.34
2019-03-04T12:07:05.439Z,40.13
2019-03-04T12:08:10.097Z,39.33
2019-03-04T12:09:15.887Z,39.16
2019-03-04T12:10:19.846Z,39.19
2019-03-04T12:11:24.080Z,38.91
2019-03-04T12:12:27.963Z,39.09
2019-03-04T12:13:32.351Z,39.04
2019-03-04T12:14:37.070Z,38.46
2019-03-04T12:15:41.027Z,38.49
2019-03-04T12:16:45.239Z,38.19
2019-03-04T12:17:49.129Z,37.44
2019-03-04T12:18:53.274Z,37.15
2019-03-04T12:19:57.162Z,37.16
2019-03-04T12:21:01.148Z,36.58
2019-03-04T12:22:05.115Z,36.67
2019-03-04T12:23:09.327Z,36.16
2019-03-04T12:24:13.494Z,36.45
2019-03-04T12:25:17.917Z,36.56
2019-03-04T12:26:22.149Z,36.62
2019-03-04T12:27:26.612Z,36.55
2019-03-04T12:28:31.012Z,36.33
2019-03-04T12:29:35.224Z,36.26
2019-03-04T12:30:39.190Z,36.41
2019-03-04T12:32:00.734Z,36.41
2019-03-04T12:33:05.534Z,36.47
2019-03-04T12:34:11.141Z,36.71
2019-03-04T12:35:15.568Z,36.52
2019-03-04T12:36:19.466Z,36.28
2019-03-04T12:37:23.626Z,36.41
2019-03-04T12:38:27.777Z,36.43
2019-03-04T12:39:31.754Z,36.55
2019-03-04T12:40:36.166Z,36.43
2019-03-04T12:41:40.228Z,36.39
2019-03-04T12:42:44.208Z,36.27
2019-03-04T12:43:48.095Z,36.33
2019-03-04T12:44:52.314Z,36.22
2019-03-04T12:45:56.461Z,35.83
2019-03-04T12:47:00.607Z,35.53
2019-03-04T12:48:04.597Z,35.53
2019-03-04T12:49:08.492Z,35.57
2019-03-04T12:50:17.830Z,36.20
2019-03-04T12:51:23.556Z,36.45
2019-03-04T12:52:27.569Z,36.51
2019-03-04T12:53:37.321Z,36.54
2019-03-04T12:54:37.684Z,36.73
2019-03-04T12:55:42.005Z,36.80
2019-03-04T12:56:46.064Z,36.94
2019-03-04T12:57:49.979Z,37.17
2019-03-04T12:58:53.801Z,37.23
2019-03-04T12:59:57.897Z,37.09
2019-03-04T13:01:01.833Z,37.08
2019-03-04T13:02:05.800Z,37.09
2019-03-04T13:03:18.980Z,36.81
2019-03-04T13:04:22.878Z,36.84
2019-03-04T13:05:27.103Z,36.81
2019-03-04T13:06:31.496Z,36.92
2019-03-04T13:07:35.321Z,36.82
2019-03-04T13:08:39.651Z,36.56
2019-03-04T13:09:43.870Z,36.41
2019-03-04T13:10:48.263Z,36.57
2019-03-04T13:11:52.488Z,36.72
2019-03-04T13:12:56.469Z,36.50
2019-03-04T13:14:00.365Z,36.43
2019-03-04T13:15:04.829Z,36.40
2019-03-04T13:16:08.742Z,36.42
2019-03-04T13:17:12.803Z,36.42
2019-03-04T13:18:16.970Z,36.26
2019-03-04T13:19:21.184Z,36.17
2019-03-04T13:20:25.251Z,35.88
2019-03-04T13:21:29.258Z,35.77
2019-03-04T13:22:33.073Z,35.88
2019-03-04T13:23:37.563Z,36.08
2019-03-04T13:24:41.650Z,36.36
2019-03-04T13:25:45.873Z,36.58
2019-03-04T13:26:49.698Z,36.71
2019-03-04T13:27:54.089Z,37.73
2019-03-04T13:28:58.251Z,38.97
2019-03-04T13:30:02.730Z,39.86
2019-03-04T13:31:07.044Z,40.57
2019-03-04T13:32:11.009Z,40.94
2019-03-04T13:33:15.278Z,41.53
2019-03-04T13:34:19.171Z,41.98
2019-03-04T13:35:24.755Z,42.35
2019-03-04T13:36:29.245Z,42.48
2019-03-04T13:37:33.306Z,42.84
2019-03-04T13:38:37.280Z,43.21
2019-03-04T13:39:41.673Z,43.64
2019-03-04T13:40:45.817Z,43.96
2019-03-04T13:41:49.954Z,44.08
2019-03-04T13:42:54.166Z,44.24
2019-03-04T13:43:58.443Z,44.55
2019-03-04T13:45:02.582Z,44.88
2019-03-04T13:46:06.723Z,44.96
2019-03-04T13:47:10.970Z,45.03
2019-03-04T13:48:14.937Z,44.85
2019-03-04T13:49:19.665Z,45.02
2019-03-04T13:50:24.502Z,44.96
2019-03-04T13:51:28.727Z,45.02
2019-03-04T13:52:33.115Z,45.12
2019-03-04T13:53:37.371Z,45.21
2019-03-04T13:54:41.444Z,45.22
2019-03-04T13:55:45.904Z,45.50
2019-03-04T13:56:49.844Z,45.78
2019-03-04T13:57:54.055Z,45.77
2019-03-04T13:58:58.708Z,45.79
2019-03-04T14:00:03.002Z,45.40
2019-03-04T14:01:07.733Z,45.27
2019-03-04T14:02:11.700Z,45.12
2019-03-04T14:03:15.669Z,44.89
2019-03-04T14:04:19.644Z,44.66
2019-03-04T14:05:23.855Z,44.15
2019-03-04T14:06:28.070Z,44.08
2019-03-04T14:07:31.893Z,44.08
2019-03-04T14:08:36.110Z,44.15
2019-03-04T14:09:40.085Z,44.08
2019-03-04T14:10:44.017Z,44.46
2019-03-04T14:11:48.238Z,44.62
2019-03-04T14:12:52.199Z,44.88
2019-03-04T14:13:56.842Z,44.91
2019-03-04T14:15:01.002Z,44.74
2019-03-04T14:16:05.118Z,44.83
2019-03-04T14:17:09.582Z,44.86
2019-03-04T14:18:13.551Z,44.83
2019-03-04T14:19:17.619Z,44.84
2019-03-04T14:20:21.768Z,44.89
2019-03-04T14:21:26.155Z,44.98
2019-03-04T14:22:37.519Z,45.25